地図

経路データ

SID SEASON NUMBER BASIN SUBBASIN NAME ISO_TIME NATURE LAT LON WMO_WIND WMO_PRES WMO_AGENCY TRACK_TYPE DIST2LAND LANDFALL IFLAG USA_AGENCY USA_ATCF_ID USA_LAT USA_LON USA_RECORD USA_STATUS USA_WIND USA_PRES USA_SSHS USA_R34_NE USA_R34_SE USA_R34_SW USA_R34_NW USA_R50_NE USA_R50_SE USA_R50_SW USA_R50_NW USA_R64_NE USA_R64_SE USA_R64_SW USA_R64_NW USA_POCI USA_ROCI USA_RMW USA_EYE TOKYO_LAT TOKYO_LON TOKYO_GRADE TOKYO_WIND TOKYO_PRES TOKYO_R50_DIR TOKYO_R50_LONG TOKYO_R50_SHORT TOKYO_R30_DIR TOKYO_R30_LONG TOKYO_R30_SHORT TOKYO_LAND CMA_LAT CMA_LON CMA_CAT CMA_WIND CMA_PRES HKO_LAT HKO_LON HKO_CAT HKO_WIND HKO_PRES NEWDELHI_LAT NEWDELHI_LON NEWDELHI_GRADE NEWDELHI_WIND NEWDELHI_PRES NEWDELHI_CI NEWDELHI_DP NEWDELHI_POCI REUNION_LAT REUNION_LON REUNION_TYPE REUNION_WIND REUNION_PRES REUNION_TNUM REUNION_CI REUNION_RMW REUNION_R34_NE REUNION_R34_SE REUNION_R34_SW REUNION_R34_NW REUNION_R50_NE REUNION_R50_SE REUNION_R50_SW REUNION_R50_NW REUNION_R64_NE REUNION_R64_SE REUNION_R64_SW REUNION_R64_NW BOM_LAT BOM_LON BOM_TYPE BOM_WIND BOM_PRES BOM_TNUM BOM_CI BOM_RMW BOM_R34_NE BOM_R34_SE BOM_R34_SW BOM_R34_NW BOM_R50_NE BOM_R50_SE BOM_R50_SW BOM_R50_NW BOM_R64_NE BOM_R64_SE BOM_R64_SW BOM_R64_NW BOM_ROCI BOM_POCI BOM_EYE BOM_POS_METHOD BOM_PRES_METHOD NADI_LAT NADI_LON NADI_CAT NADI_WIND NADI_PRES WELLINGTON_LAT WELLINGTON_LON WELLINGTON_WIND WELLINGTON_PRES DS824_LAT DS824_LON DS824_STAGE DS824_WIND DS824_PRES TD9636_LAT TD9636_LON TD9636_STAGE TD9636_WIND TD9636_PRES TD9635_LAT TD9635_LON TD9635_WIND TD9635_PRES TD9635_ROCI NEUMANN_LAT NEUMANN_LON NEUMANN_CLASS NEUMANN_WIND NEUMANN_PRES MLC_LAT MLC_LON MLC_CLASS MLC_WIND MLC_PRES USA_GUST BOM_GUST BOM_GUST_PER REUNION_GUST REUNION_GUST_PER USA_SEAHGT USA_SEARAD_NE USA_SEARAD_SE USA_SEARAD_SW USA_SEARAD_NW STORM_SPEED STORM_DIR
1922209N16117 1922 39 WP MM NOT_NAMED 1922-07-27 22:00:00 NR 16.0000 117.000 main 288 288 __________O___ -1 16.0000 117.000 2 11 279
1922209N16117 1922 39 WP MM NOT_NAMED 1922-07-28 00:00:00 NR 16.0554 116.615 main 331 331 __________P___ -1 16.0554 116.615 2 11 279
1922209N16117 1922 39 WP MM NOT_NAMED 1922-07-28 03:00:00 NR 16.1547 116.038 main 396 396 __________P___ -1 16.1547 116.038 2 11 282
1922209N16117 1922 39 WP MM NOT_NAMED 1922-07-28 06:00:00 NR 16.2970 115.463 main 449 460 __________P___ -1 16.2970 115.463 2 12 288
1922209N16117 1922 39 WP MM NOT_NAMED 1922-07-28 09:00:00 NR 16.5091 114.890 main 515 508 __________P___ -1 16.5091 114.890 2 12 292
1922209N16117 1922 39 WP MM NOT_NAMED 1922-07-28 10:00:00 NR 16.6000 114.700 main 508 460 __________O___ -1 16.6000 114.700 7 13 299
1922209N16117 1922 39 WP MM NOT_NAMED 1922-07-28 12:00:00 NR 16.8143 114.322 main 460 392 __________P___ -1 16.8143 114.322 7 13 304
1922209N16117 1922 39 WP MM NOT_NAMED 1922-07-28 15:00:00 NR 17.1931 113.772 main 392 324 __________P___ -1 17.1931 113.772 7 13 308
1922209N16117 1922 39 WP MM NOT_NAMED 1922-07-28 18:00:00 NR 17.5987 113.265 main 324 257 __________P___ -1 17.5987 113.265 7 12 311
1922209N16117 1922 39 WP MM NOT_NAMED 1922-07-28 21:00:00 NR 17.9841 112.826 main 257 243 __________P___ -1 17.9841 112.826 7 11 313
1922209N16117 1922 39 WP MM NOT_NAMED 1922-07-28 22:00:00 NR 18.1000 112.700 main 243 214 __________O___ -1 18.1000 112.700 3 9 312
1922209N16117 1922 39 WP MM NOT_NAMED 1922-07-29 00:00:00 NR 18.2837 112.481 main 214 176 __________P___ -1 18.2837 112.481 3 7 313
1922209N16117 1922 39 WP MM NOT_NAMED 1922-07-29 03:00:00 NR 18.5219 112.223 main 176 145 __________P___ -1 18.5219 112.223 3 6 316
1922209N16117 1922 39 WP MM NOT_NAMED 1922-07-29 06:00:00 NR 18.7319 112.023 main 145 122 __________P___ -1 18.7319 112.023 3 5 320
1922209N16117 1922 39 WP MM NOT_NAMED 1922-07-29 09:00:00 NR 18.9322 111.854 main 122 107 __________P___ -1 18.9322 111.854 3 5 321
1922209N16117 1922 39 WP MM NOT_NAMED 1922-07-29 10:00:00 NR 19.0000 111.800 main 107 92 __________O___ -1 19.0000 111.800 4 5 323
1922209N16117 1922 39 WP MM NOT_NAMED 1922-07-29 12:00:00 NR 19.1340 111.692 main 92 62 __________P___ -1 19.1340 111.692 4 5 324
1922209N16117 1922 39 WP MM NOT_NAMED 1922-07-29 15:00:00 NR 19.3347 111.544 main 62 41 __________P___ -1 19.3347 111.544 4 5 325
1922209N16117 1922 39 WP MM NOT_NAMED 1922-07-29 18:00:00 NR 19.5520 111.384 main 41 23 __________P___ -1 19.5520 111.384 4 6 324
1922209N16117 1922 39 WP MM NOT_NAMED 1922-07-29 21:00:00 NR 19.8047 111.182 main 30 20 __________P___ -1 19.8047 111.182 4 7 322
1922209N16117 1922 39 WP MM NOT_NAMED 1922-07-29 22:00:00 NR 19.9000 111.100 main 20 10 __________O___ -1 19.9000 111.100 2 8 317
1922209N16117 1922 39 WP MM NOT_NAMED 1922-07-30 00:00:00 NR 20.0977 110.888 main 15 10 __________P___ -1 20.0977 110.888 2 9 314
1922209N16117 1922 39 WP MM NOT_NAMED 1922-07-30 03:00:00 NR 20.4315 110.519 main 10 0 __________P___ -1 20.4315 110.519 2 10 315
1922209N16117 1922 39 WP MM NOT_NAMED 1922-07-30 06:00:00 NR 20.8127 110.120 main 0 0 __________P___ -1 20.8127 110.120 2 11 318
1922209N16117 1922 39 WP MM NOT_NAMED 1922-07-30 09:00:00 NR 21.2443 109.725 main 10 10 __________P___ -1 21.2443 109.725 2 11 321
1922209N16117 1922 39 WP MM NOT_NAMED 1922-07-30 10:00:00 NR 21.4000 109.600 main 15 0 __________O___ -1 21.4000 109.600 2 12 326
1922209N16117 1922 39 WP MM NOT_NAMED 1922-07-30 12:00:00 NR 21.7291 109.366 main 0 0 __________P___ -1 21.7291 109.366 2 12 329
1922209N16117 1922 39 WP MM NOT_NAMED 1922-07-30 15:00:00 NR 22.2599 109.050 main 0 0 __________P___ -1 22.2599 109.050 2 12 333
1922209N16117 1922 39 WP MM NOT_NAMED 1922-07-30 18:00:00 NR 22.8231 108.762 main 0 0 __________P___ -1 22.8231 108.762 2 13 336
1922209N16117 1922 39 WP MM NOT_NAMED 1922-07-30 21:00:00 NR 23.4046 108.490 main 0 0 __________P___ -1 23.4046 108.490 2 13 337
1922209N16117 1922 39 WP MM NOT_NAMED 1922-07-30 22:00:00 NR 23.6000 108.400 main 0 __________O___ -1 23.6000 108.400 7 13 339

デジタル台風データ・検索

IBTrACS Databaseについて

本データベースは、米国NOAAが公開する1842年以降の世界の熱帯低気圧のベストトラックデータアーカイブInternational Best Track Archive for Climate Stewardship (IBTrACS)を、ウェブで閲覧しやすい形式に変換したものです。

最終更新日:2021-10-21